Okanogan, WA (98840)

6:12 AM PDT on August 20, 2014 (GMT -0700)
Omak | Change Station
CLOSE
Current Station
Airport
Location: Omak,
Elevation: 1302 ft
Nearby Weather Stations

Elev 1302 ft 48.46 °N, 119.52 °W | Updated 19 minutes ago

Mostly Cloudy
Mostly Cloudy
67 °F
Feels Like 67 °F
N
7
Wind Variable Wind from NW

Today
High -- | Low -- °F
--% Chance of Precip.
Yesterday
High -- | Low -- °F
Precip. -- in
5:59 AM 8:03 PM
Waning Crescent, 22% visible
Pressure 29.70 in
Visibility 10.0 miles
Clouds Mostly Cloudy 9500 ft
Dew Point 48 °F
Humidity 51%
Rainfall 0.00 in
Snow Depth Not available.
UV 0 out of 12
Pollen 6.60 out of 12
Air Quality Not available.
Flu Activity Not available.
METAR KOMK 201253Z AUTO 31006KT 10SM BKN095 19/09 A2973 RMK AO2 SLP058 T01940089

More Conditions Fewer Conditions

Pressure 29.70 in
Visibility 10.0 miles
Clouds Mostly Cloudy 9500 ft
Dew Point 48 °F
Humidity 51%
Rainfall 0.00 in
Snow Depth Not available.
UV 0 out of 12
Pollen 6.60 out of 12
Air Quality Not available.
Flu Activity Not available.
METAR KOMK 201253Z AUTO 31006KT 10SM BKN095 19/09 A2973 RMK AO2 SLP058 T01940089

More Conditions Fewer Conditions

10-Day Weather Forecast

Almanac

Astronomy

Aug. 20, 2014 Rise Set
Actual Time 5:59 AM PDT 8:03 PM PDT
Civil Twilight 5:25 AM PDT 8:36 PM PDT
Nautical Twilight 4:43 AM PDT 9:18 PM PDT
Astronomical Twilight 3:56 AM PDT 10:05 PM PDT
Moon 1:34 AM PDT 5:00 PM PDT
Length of Visible Light 15h 11m
Length of Day
14h 03m
Tomorrow will be 3m 16s shorter.
Waning Crescent, 22% of the Moon is Illuminated
Today
Waning Crescent
Aug 25
New
Sep 2
First Quarter
Sep 8
Full
Sep 15
Last Quarter

Today's Extremes

State Highs State Lows

Community

WunderPhotos

Upload Photos

1,745,623 photos uploaded!

Nearby

Snow Depth

Station Depth Elevation
Moses Mountain 1 in 5300 ft
Rainy Pass 0 in 4780 ft
Harts Pass 0 in 6500 ft
Lyman Lake 0 in 5900 ft
Sentinel Butte 0 in 4920 ft

Earthquake Activity

City Distance Mag. Time & Date
No recent earthquake activity has been reported nearby.
Minimum magnitude displayed is 2.5.

Coastal Water Temperatures

Place Temperature
No Stations Reporting

Nearby Weather Stations